createdAt,value
2022-08-14T00:02:15.911Z,20.26
2022-08-14T00:04:45.084Z,20.18
2022-08-14T00:07:14.603Z,20.19
2022-08-14T00:10:01.717Z,20.18
2022-08-14T00:12:39.407Z,20.04
2022-08-14T00:15:24.960Z,19.96
2022-08-14T00:17:53.885Z,19.86
2022-08-14T00:20:31.115Z,19.82
2022-08-14T00:23:14.528Z,19.79
2022-08-14T00:26:06.224Z,19.77
2022-08-14T00:28:37.168Z,19.73
2022-08-14T00:31:07.984Z,19.76
2022-08-14T00:33:51.503Z,19.77
2022-08-14T00:36:37.694Z,19.89
2022-08-14T00:39:14.307Z,19.96
2022-08-14T00:41:42.712Z,20.06
2022-08-14T00:44:10.852Z,19.91
2022-08-14T00:46:41.024Z,19.85
2022-08-14T00:49:11.610Z,19.84
2022-08-14T00:51:44.220Z,19.90
2022-08-14T00:54:20.964Z,19.87
2022-08-14T00:56:55.504Z,19.90
2022-08-14T00:59:28.392Z,19.90
2022-08-14T01:02:00.796Z,19.87
2022-08-14T01:04:52.366Z,19.87
2022-08-14T01:07:22.471Z,19.79
2022-08-14T01:09:59.168Z,19.73
2022-08-14T01:12:29.851Z,19.78
2022-08-14T01:15:09.756Z,19.74
2022-08-14T01:18:01.685Z,19.88
2022-08-14T01:20:49.366Z,19.95
2022-08-14T01:23:19.079Z,19.79
2022-08-14T01:25:51.444Z,19.82
2022-08-14T01:28:47.399Z,19.68
2022-08-14T01:31:15.691Z,19.55
2022-08-14T01:34:00.237Z,19.49
2022-08-14T01:36:39.745Z,19.44
2022-08-14T01:39:17.239Z,19.43
2022-08-14T01:41:53.567Z,19.41
2022-08-14T01:44:31.184Z,19.42
2022-08-14T01:47:05.659Z,19.42
2022-08-14T01:49:35.628Z,19.42
2022-08-14T01:52:34.228Z,19.41
2022-08-14T01:55:03.285Z,19.39
2022-08-14T01:57:55.259Z,19.40
2022-08-14T02:00:27.736Z,19.44
2022-08-14T02:02:57.628Z,19.39
2022-08-14T02:05:32.996Z,19.40
2022-08-14T02:08:09.007Z,19.33
2022-08-14T02:10:46.816Z,19.43
2022-08-14T02:13:16.927Z,19.47
2022-08-14T02:15:45.718Z,19.45
2022-08-14T02:18:16.427Z,19.47
2022-08-14T02:20:48.364Z,19.39
2022-08-14T02:23:28.990Z,19.58
2022-08-14T02:26:18.135Z,19.59
2022-08-14T02:28:59.623Z,19.64
2022-08-14T02:31:42.118Z,19.58
2022-08-14T02:34:22.003Z,19.55
2022-08-14T02:37:04.139Z,19.45
2022-08-14T02:39:36.114Z,19.36
2022-08-14T02:42:13.053Z,19.44
2022-08-14T02:44:48.784Z,19.36
2022-08-14T02:47:20.941Z,19.33
2022-08-14T02:49:50.721Z,19.34
2022-08-14T02:52:55.713Z,19.25
2022-08-14T02:55:11.949Z,19.25
2022-08-14T02:57:58.250Z,19.22
2022-08-14T03:00:35.533Z,19.20
2022-08-14T03:03:08.411Z,19.19
2022-08-14T03:05:41.254Z,19.13
2022-08-14T03:08:15.835Z,19.26
2022-08-14T03:10:48.950Z,19.19
2022-08-14T03:13:21.498Z,19.19
2022-08-14T03:15:57.879Z,19.23
2022-08-14T03:18:31.494Z,19.21
2022-08-14T03:21:02.921Z,19.23
2022-08-14T03:23:36.495Z,19.25
2022-08-14T03:26:12.989Z,19.35
2022-08-14T03:28:51.908Z,19.43
2022-08-14T03:31:27.771Z,19.40
2022-08-14T03:33:56.853Z,19.40
2022-08-14T03:37:37.493Z,19.38
2022-08-14T03:39:22.487Z,19.45
2022-08-14T03:41:54.635Z,19.55
2022-08-14T03:45:19.881Z,19.57
2022-08-14T03:47:12.419Z,19.66
2022-08-14T03:49:49.776Z,19.71
2022-08-14T03:52:37.947Z,19.74
2022-08-14T03:55:12.504Z,19.81
2022-08-14T03:57:41.123Z,19.79
2022-08-14T04:00:40.445Z,19.79
2022-08-14T04:03:02.428Z,19.75
2022-08-14T04:05:42.893Z,19.80
2022-08-14T04:08:22.967Z,19.79
2022-08-14T04:11:01.064Z,19.85
2022-08-14T04:13:34.025Z,19.90
2022-08-14T04:16:21.218Z,19.96
2022-08-14T04:18:54.140Z,19.91
2022-08-14T04:21:24.606Z,19.94
2022-08-14T04:23:57.388Z,19.95
2022-08-14T04:26:42.978Z,20.06
2022-08-14T04:29:15.288Z,20.24
2022-08-14T04:32:57.569Z,20.33
2022-08-14T04:34:35.145Z,20.51
2022-08-14T04:37:25.368Z,20.58
2022-08-14T04:40:13.536Z,20.68
2022-08-14T04:43:02.100Z,20.71
2022-08-14T04:45:38.751Z,20.76
2022-08-14T04:48:40.058Z,20.88
2022-08-14T04:51:08.906Z,21.00
2022-08-14T04:53:43.560Z,21.07
2022-08-14T04:56:30.994Z,21.10
2022-08-14T04:59:10.100Z,21.14
2022-08-14T05:01:48.772Z,21.15
2022-08-14T05:04:21.845Z,21.24
2022-08-14T05:06:53.472Z,21.48
2022-08-14T05:09:24.138Z,21.68
2022-08-14T05:11:53.091Z,21.94
2022-08-14T05:14:46.882Z,21.88
2022-08-14T05:17:12.253Z,22.33
2022-08-14T05:19:45.031Z,22.26
2022-08-14T05:22:28.200Z,22.39
2022-08-14T05:24:56.060Z,22.55
2022-08-14T05:27:24.147Z,22.48
2022-08-14T05:29:56.632Z,22.60
2022-08-14T05:32:26.947Z,22.75
2022-08-14T05:35:00.162Z,22.95
2022-08-14T05:37:30.938Z,23.01
2022-08-14T05:40:00.422Z,23.09
2022-08-14T05:42:31.945Z,23.12
2022-08-14T05:45:04.106Z,23.18
2022-08-14T05:47:34.024Z,23.16
2022-08-14T05:50:17.389Z,23.11
2022-08-14T05:52:48.236Z,22.89
2022-08-14T05:55:22.576Z,23.00
2022-08-14T05:57:59.784Z,23.05
2022-08-14T06:00:38.714Z,23.11
2022-08-14T06:03:16.942Z,23.36
2022-08-14T06:05:47.982Z,23.37
2022-08-14T06:08:36.494Z,23.69
2022-08-14T06:11:10.178Z,23.82
2022-08-14T06:13:45.184Z,23.84
2022-08-14T06:16:18.375Z,23.79
2022-08-14T06:18:52.502Z,23.71
2022-08-14T06:21:24.215Z,23.73
2022-08-14T06:23:52.164Z,23.69
2022-08-14T06:26:22.469Z,23.62
2022-08-14T06:28:51.970Z,23.66
2022-08-14T06:31:21.289Z,23.76
2022-08-14T06:35:10.818Z,24.28
2022-08-14T06:36:39.458Z,24.47
2022-08-14T06:39:10.056Z,24.48
2022-08-14T06:41:58.486Z,24.63
2022-08-14T06:44:30.538Z,24.76
2022-08-14T06:47:02.802Z,24.88
2022-08-14T06:49:43.510Z,24.87
2022-08-14T06:52:16.731Z,25.58
2022-08-14T06:54:46.030Z,26.25
2022-08-14T06:57:14.139Z,26.52
2022-08-14T06:59:43.121Z,26.71
2022-08-14T07:02:29.928Z,26.77
2022-08-14T07:05:20.889Z,27.29
2022-08-14T07:07:51.747Z,27.77
2022-08-14T07:10:22.309Z,27.97
2022-08-14T07:13:01.683Z,28.18
2022-08-14T07:15:33.899Z,28.24
2022-08-14T07:18:08.573Z,28.44
2022-08-14T07:20:37.043Z,28.48
2022-08-14T07:23:09.245Z,28.04
2022-08-14T07:25:48.668Z,27.94
2022-08-14T07:28:35.799Z,28.01
2022-08-14T07:31:12.037Z,27.98
2022-08-14T07:33:50.174Z,28.01
2022-08-14T07:36:27.225Z,28.01
2022-08-14T07:39:03.079Z,28.08
2022-08-14T07:41:42.518Z,27.91
2022-08-14T07:44:29.022Z,27.74
2022-08-14T07:46:59.474Z,27.88
2022-08-14T07:49:28.489Z,27.86
2022-08-14T07:51:56.981Z,27.72
2022-08-14T07:54:30.005Z,28.12
2022-08-14T07:57:12.227Z,29.37
2022-08-14T07:59:44.381Z,29.88
2022-08-14T08:02:18.456Z,29.80
2022-08-14T08:04:54.560Z,29.93
2022-08-14T08:07:30.702Z,30.65
2022-08-14T08:10:46.816Z,32.28
2022-08-14T08:13:14.339Z,32.82
2022-08-14T08:15:47.847Z,32.36
2022-08-14T08:18:20.539Z,32.30
2022-08-14T08:20:59.608Z,32.90
2022-08-14T08:23:34.458Z,33.00
2022-08-14T08:26:11.840Z,33.63
2022-08-14T08:28:43.724Z,33.99
2022-08-14T08:31:12.862Z,33.63
2022-08-14T08:33:43.618Z,33.14
2022-08-14T08:36:18.810Z,32.93
2022-08-14T08:39:18.872Z,33.39
2022-08-14T08:41:45.856Z,34.65
2022-08-14T08:44:33.152Z,34.26
2022-08-14T08:47:08.030Z,33.43
2022-08-14T08:49:48.192Z,32.81
2022-08-14T08:52:24.846Z,32.89
2022-08-14T08:54:57.186Z,33.88
2022-08-14T08:57:25.432Z,33.65
2022-08-14T08:59:54.945Z,34.97
2022-08-14T09:02:26.147Z,36.24
2022-08-14T09:05:03.765Z,37.04
2022-08-14T09:07:31.742Z,37.86
2022-08-14T09:10:00.751Z,37.61
2022-08-14T09:12:32.310Z,37.05
2022-08-14T09:15:04.216Z,36.06
2022-08-14T09:17:42.508Z,35.66
2022-08-14T09:20:12.583Z,35.85
2022-08-14T09:22:48.363Z,35.54
2022-08-14T09:25:59.110Z,35.95
2022-08-14T09:28:09.202Z,35.73
2022-08-14T09:30:50.203Z,34.63
2022-08-14T09:33:57.440Z,33.75
2022-08-14T09:36:49.232Z,33.47
2022-08-14T09:39:23.094Z,32.89
2022-08-14T09:42:21.772Z,32.44
2022-08-14T09:45:14.327Z,32.54
2022-08-14T09:47:42.391Z,33.61
2022-08-14T09:50:29.905Z,35.08
2022-08-14T09:53:03.917Z,35.64
2022-08-14T09:55:42.690Z,35.94
2022-08-14T09:58:19.188Z,36.51
2022-08-14T10:01:00.720Z,37.35
2022-08-14T10:03:46.828Z,36.38
2022-08-14T10:06:28.437Z,34.89
2022-08-14T10:09:12.029Z,33.09
2022-08-14T10:11:59.114Z,32.45
2022-08-14T10:14:35.841Z,31.79
2022-08-14T10:17:07.055Z,30.99
2022-08-14T10:19:47.430Z,30.75
2022-08-14T10:23:15.141Z,30.86
2022-08-14T10:25:16.067Z,31.02
2022-08-14T10:27:50.143Z,31.26
2022-08-14T10:30:33.424Z,31.38
2022-08-14T10:33:02.542Z,31.60
2022-08-14T10:35:41.521Z,31.25
2022-08-14T10:38:26.199Z,31.19
2022-08-14T10:40:59.351Z,31.15
2022-08-14T10:43:31.581Z,31.09
2022-08-14T10:46:21.732Z,31.18
2022-08-14T10:49:04.456Z,31.36
2022-08-14T10:51:39.871Z,30.89
2022-08-14T10:54:16.890Z,30.90
2022-08-14T10:57:15.464Z,30.42
2022-08-14T10:59:58.710Z,30.07
2022-08-14T11:02:44.526Z,29.62
2022-08-14T11:05:19.335Z,29.69
2022-08-14T11:07:57.069Z,29.66
2022-08-14T11:10:43.281Z,29.69
2022-08-14T11:13:18.803Z,29.57
2022-08-14T11:15:46.724Z,29.56
2022-08-14T11:18:20.567Z,29.51
2022-08-14T11:21:01.859Z,29.64
2022-08-14T11:23:38.440Z,30.01
2022-08-14T11:26:08.853Z,30.05
2022-08-14T11:28:47.053Z,30.19
2022-08-14T11:31:24.228Z,30.20
2022-08-14T11:33:56.884Z,29.83
2022-08-14T11:36:35.475Z,29.91
2022-08-14T11:39:33.690Z,29.72
2022-08-14T11:42:56.183Z,29.53
2022-08-14T11:45:04.517Z,29.37
2022-08-14T11:48:10.781Z,29.35
2022-08-14T11:50:36.332Z,29.31
2022-08-14T11:53:07.827Z,29.61
2022-08-14T11:55:38.861Z,29.97
2022-08-14T11:58:11.642Z,30.09
2022-08-14T12:00:57.259Z,30.22
2022-08-14T12:03:51.479Z,30.38
2022-08-14T12:06:29.290Z,30.34
2022-08-14T12:09:14.912Z,30.34
2022-08-14T12:11:47.312Z,30.17
2022-08-14T12:14:31.010Z,30.28
2022-08-14T12:17:12.695Z,30.16
2022-08-14T12:20:03.037Z,30.17
2022-08-14T12:22:36.062Z,30.19
2022-08-14T12:25:10.955Z,30.25
2022-08-14T12:27:52.719Z,29.95
2022-08-14T12:30:43.004Z,29.75
2022-08-14T12:33:30.861Z,29.52
2022-08-14T12:36:11.598Z,29.51
2022-08-14T12:38:44.935Z,29.63
2022-08-14T12:41:22.169Z,29.77
2022-08-14T12:44:02.023Z,29.91
2022-08-14T12:46:41.085Z,29.79
2022-08-14T12:49:17.079Z,29.97
2022-08-14T12:51:57.281Z,30.16
2022-08-14T12:54:28.688Z,30.15
2022-08-14T12:57:20.193Z,30.18
2022-08-14T12:59:49.558Z,30.22
2022-08-14T13:02:27.159Z,30.05
2022-08-14T13:04:58.007Z,29.98
2022-08-14T13:07:32.060Z,30.09
2022-08-14T13:10:34.328Z,30.07
2022-08-14T13:13:12.997Z,30.23
2022-08-14T13:15:44.359Z,30.32
2022-08-14T13:18:17.090Z,30.18
2022-08-14T13:20:51.288Z,30.09
2022-08-14T13:23:31.720Z,29.88
2022-08-14T13:26:01.286Z,29.78
2022-08-14T13:28:34.116Z,29.72
2022-08-14T13:31:11.052Z,29.84
2022-08-14T13:33:41.263Z,29.86
2022-08-14T13:36:24.182Z,29.97
2022-08-14T13:39:00.741Z,29.98
2022-08-14T13:41:34.518Z,30.07
2022-08-14T13:44:04.637Z,29.93
2022-08-14T13:46:36.126Z,30.04
2022-08-14T13:49:04.242Z,30.18
2022-08-14T13:51:36.610Z,30.36
2022-08-14T13:54:10.891Z,30.53
2022-08-14T13:56:42.805Z,30.20
2022-08-14T13:59:11.764Z,30.20
2022-08-14T14:01:45.859Z,30.16
2022-08-14T14:04:23.236Z,30.18
2022-08-14T14:06:52.307Z,30.24
2022-08-14T14:09:32.732Z,30.47
2022-08-14T14:12:37.295Z,30.77
2022-08-14T14:14:56.587Z,30.85
2022-08-14T14:17:25.667Z,30.93
2022-08-14T14:19:58.329Z,31.02
2022-08-14T14:22:35.654Z,30.95
2022-08-14T14:25:19.469Z,30.69
2022-08-14T14:27:53.652Z,30.39
2022-08-14T14:30:53.429Z,30.38
2022-08-14T14:33:44.003Z,30.33
2022-08-14T14:36:04.985Z,30.02
2022-08-14T14:38:34.616Z,29.58
2022-08-14T14:41:05.757Z,29.30
2022-08-14T14:43:44.532Z,29.12
2022-08-14T14:46:14.591Z,28.85
2022-08-14T14:48:46.495Z,28.64
2022-08-14T14:51:22.530Z,28.76
2022-08-14T14:53:54.351Z,28.80
2022-08-14T14:56:51.156Z,28.80
2022-08-14T14:59:16.923Z,28.74
2022-08-14T15:01:50.457Z,28.84
2022-08-14T15:04:20.783Z,28.86
2022-08-14T15:06:50.210Z,28.79
2022-08-14T15:09:23.800Z,28.71
2022-08-14T15:11:51.741Z,28.69
2022-08-14T15:14:55.415Z,28.72
2022-08-14T15:17:09.247Z,28.55
2022-08-14T15:19:38.328Z,28.61
2022-08-14T15:22:10.432Z,28.54
2022-08-14T15:24:39.914Z,28.47
2022-08-14T15:27:08.456Z,28.56
2022-08-14T15:29:39.399Z,28.68
2022-08-14T15:32:11.485Z,28.95
2022-08-14T15:34:44.041Z,28.98
2022-08-14T15:37:16.907Z,28.93
2022-08-14T15:39:45.392Z,29.07
2022-08-14T15:42:16.394Z,28.88
2022-08-14T15:44:57.568Z,28.71
2022-08-14T15:47:29.713Z,28.69
2022-08-14T15:50:00.326Z,28.59
2022-08-14T15:52:35.062Z,28.48
2022-08-14T15:55:07.787Z,28.53
2022-08-14T15:57:36.633Z,28.52
2022-08-14T16:00:43.861Z,28.46
2022-08-14T16:03:18.128Z,28.33
2022-08-14T16:05:53.575Z,28.27
2022-08-14T16:08:27.464Z,28.08
2022-08-14T16:11:07.032Z,27.88
2022-08-14T16:13:43.783Z,27.65
2022-08-14T16:16:34.769Z,27.43
2022-08-14T16:19:03.237Z,27.27
2022-08-14T16:24:28.130Z,27.06
2022-08-14T16:27:00.966Z,26.89
2022-08-14T16:29:38.592Z,26.76
2022-08-14T16:32:33.028Z,26.71
2022-08-14T16:34:57.444Z,26.53
2022-08-14T16:37:30.378Z,26.50
2022-08-14T16:40:02.864Z,26.42
2022-08-14T16:40:23.943Z,27.16
2022-08-14T16:42:38.896Z,26.34
2022-08-14T16:45:26.494Z,26.25
2022-08-14T16:47:56.254Z,26.18
2022-08-14T16:50:42.982Z,26.09
2022-08-14T16:53:17.814Z,26.03
2022-08-14T16:55:53.272Z,25.94
2022-08-14T16:58:29.932Z,25.93
2022-08-14T17:01:16.370Z,25.88
2022-08-14T17:04:04.594Z,25.84
2022-08-14T17:06:45.986Z,25.82
2022-08-14T17:09:35.411Z,25.78
2022-08-14T17:12:28.579Z,25.84
2022-08-14T17:15:14.956Z,25.83
2022-08-14T17:17:49.913Z,25.74
2022-08-14T17:20:53.226Z,25.72
2022-08-14T17:23:13.616Z,25.65
2022-08-14T17:25:49.446Z,25.65
2022-08-14T17:28:52.039Z,25.63
2022-08-14T17:31:12.282Z,25.51
2022-08-14T17:33:51.771Z,25.51
2022-08-14T17:36:24.100Z,25.48
2022-08-14T17:39:08.740Z,25.56
2022-08-14T17:41:43.848Z,25.48
2022-08-14T17:44:34.129Z,25.27
2022-08-14T17:47:18.131Z,25.13
2022-08-14T17:49:52.257Z,25.00
2022-08-14T17:52:36.249Z,25.03
2022-08-14T17:55:12.533Z,25.23
2022-08-14T17:57:42.548Z,24.98
2022-08-14T18:00:14.718Z,23.52
2022-08-14T18:02:50.618Z,20.88
2022-08-14T18:05:23.774Z,19.15
2022-08-14T18:08:32.572Z,19.08
2022-08-14T18:10:56.872Z,19.25
2022-08-14T18:13:50.066Z,19.27
2022-08-14T18:16:19.714Z,19.42
2022-08-14T18:18:49.757Z,19.78
2022-08-14T18:21:23.924Z,20.08
2022-08-14T18:24:28.274Z,20.21
2022-08-14T18:27:22.827Z,20.13
2022-08-14T18:29:58.042Z,20.23
2022-08-14T18:32:31.669Z,20.24
2022-08-14T18:35:20.780Z,20.29
2022-08-14T18:37:56.108Z,20.39
2022-08-14T18:40:35.056Z,20.68
2022-08-14T18:43:06.244Z,20.53
2022-08-14T18:45:41.436Z,20.52
2022-08-14T18:48:16.523Z,20.75
2022-08-14T18:51:01.066Z,20.74
2022-08-14T18:53:34.255Z,20.78
2022-08-14T18:56:09.786Z,20.81
2022-08-14T18:58:57.289Z,20.73
2022-08-14T19:01:30.083Z,20.63
2022-08-14T19:04:01.481Z,20.66
2022-08-14T19:06:38.144Z,20.58
2022-08-14T19:09:06.179Z,20.56
2022-08-14T19:11:40.542Z,20.48
2022-08-14T19:14:12.758Z,20.54
2022-08-14T19:16:43.215Z,20.56
2022-08-14T19:19:23.942Z,20.62
2022-08-14T19:21:56.906Z,20.65
2022-08-14T19:24:43.886Z,20.55
2022-08-14T19:27:24.052Z,20.47
2022-08-14T19:30:20.431Z,20.37
2022-08-14T19:32:57.026Z,20.21
2022-08-14T19:35:48.819Z,20.20
2022-08-14T19:38:57.244Z,20.07
2022-08-14T19:41:35.522Z,20.00
2022-08-14T19:44:19.057Z,19.97
2022-08-14T19:47:01.486Z,20.04
2022-08-14T19:50:07.724Z,20.08
2022-08-14T19:52:29.729Z,19.97
2022-08-14T19:54:59.401Z,19.92
2022-08-14T19:57:31.807Z,19.90
2022-08-14T20:00:28.579Z,19.84
2022-08-14T20:03:10.126Z,19.80
2022-08-14T20:05:42.967Z,19.78
2022-08-14T20:09:05.321Z,19.81
2022-08-14T20:12:00.947Z,19.82
2022-08-14T20:14:20.654Z,19.78
2022-08-14T20:17:01.935Z,19.71
2022-08-14T20:19:37.197Z,19.77
2022-08-14T20:22:34.997Z,19.74
2022-08-14T20:24:57.742Z,19.76
2022-08-14T20:27:33.479Z,19.86
2022-08-14T20:30:33.758Z,19.90
2022-08-14T20:33:07.747Z,19.93
2022-08-14T20:35:42.056Z,19.84
2022-08-14T20:38:31.635Z,19.75
2022-08-14T20:41:10.642Z,19.79
2022-08-14T20:44:00.798Z,19.76
2022-08-14T20:46:38.362Z,19.69
2022-08-14T20:49:10.969Z,19.75
2022-08-14T20:51:59.544Z,19.72
2022-08-14T20:54:34.041Z,19.67
2022-08-14T20:57:09.514Z,19.65
2022-08-14T20:59:53.192Z,19.70
2022-08-14T21:02:49.734Z,19.68
2022-08-14T21:05:33.741Z,19.70
2022-08-14T21:08:08.400Z,19.74
2022-08-14T21:10:44.101Z,19.65
2022-08-14T21:13:27.509Z,19.56
2022-08-14T21:16:34.197Z,19.59
2022-08-14T21:18:58.882Z,19.55
2022-08-14T21:21:40.856Z,19.72
2022-08-14T21:24:38.614Z,19.67
2022-08-14T21:27:12.762Z,19.72
2022-08-14T21:29:55.023Z,19.73
2022-08-14T21:32:47.087Z,19.70
2022-08-14T21:35:26.275Z,19.87
2022-08-14T21:37:54.275Z,19.86
2022-08-14T21:40:42.170Z,19.85
2022-08-14T21:43:17.792Z,19.77
2022-08-14T21:45:58.794Z,19.96
2022-08-14T21:48:32.339Z,20.01
2022-08-14T21:51:53.257Z,20.02
2022-08-14T21:53:59.919Z,19.89
2022-08-14T21:56:38.369Z,19.90
2022-08-14T21:59:17.748Z,19.91
2022-08-14T22:02:00.515Z,19.89
2022-08-14T22:04:40.764Z,19.86
2022-08-14T22:07:13.217Z,19.84
2022-08-14T22:09:54.702Z,19.90
2022-08-14T22:12:58.331Z,20.08
2022-08-14T22:15:15.386Z,20.11
2022-08-14T22:17:44.382Z,20.08
2022-08-14T22:20:16.565Z,20.04
2022-08-14T22:22:44.750Z,20.13
2022-08-14T22:25:16.189Z,20.09
2022-08-14T22:27:55.776Z,20.09
2022-08-14T22:30:25.253Z,19.98
2022-08-14T22:32:56.337Z,20.01
2022-08-14T22:35:26.715Z,20.05
2022-08-14T22:38:35.929Z,19.98
2022-08-14T22:41:08.574Z,19.96
2022-08-14T22:43:35.297Z,20.00
2022-08-14T22:46:14.526Z,20.11
2022-08-14T22:48:45.317Z,20.08
2022-08-14T22:51:17.676Z,20.01
2022-08-14T22:53:48.477Z,19.95
2022-08-14T22:56:20.559Z,20.01
2022-08-14T22:58:53.961Z,19.99
2022-08-14T23:01:56.239Z,19.89
2022-08-14T23:04:34.442Z,19.90
2022-08-14T23:07:07.455Z,19.91
2022-08-14T23:09:56.853Z,19.86
2022-08-14T23:12:31.769Z,19.84
2022-08-14T23:15:03.985Z,19.95
2022-08-14T23:17:39.072Z,19.96
2022-08-14T23:20:19.139Z,19.89
2022-08-14T23:22:51.264Z,19.91
2022-08-14T23:25:44.668Z,20.04
2022-08-14T23:28:34.964Z,19.97
2022-08-14T23:31:08.374Z,19.97
2022-08-14T23:33:42.006Z,19.97
2022-08-14T23:36:32.184Z,20.08
2022-08-14T23:39:07.184Z,20.01
2022-08-14T23:41:46.383Z,19.87
2022-08-14T23:44:23.765Z,19.85
2022-08-14T23:46:56.636Z,19.92
2022-08-14T23:49:28.099Z,19.90
2022-08-14T23:52:50.071Z,19.81
2022-08-14T23:55:05.674Z,19.83
2022-08-14T23:57:44.100Z,19.86
